sensor_id;sensor_type;location;lat;lon;timestamp;temperature;humidity
52879;DHT22;38747;53.140;6.498;2024-02-23T00:00:09;5.40;99.90
52879;DHT22;38747;53.140;6.498;2024-02-23T00:02:39;5.40;99.90
52879;DHT22;38747;53.140;6.498;2024-02-23T00:05:05;5.40;99.90
52879;DHT22;38747;53.140;6.498;2024-02-23T00:07:31;5.30;99.90
52879;DHT22;38747;53.140;6.498;2024-02-23T00:09:57;5.40;99.90
52879;DHT22;38747;53.140;6.498;2024-02-23T00:12:22;5.40;99.90
52879;DHT22;38747;53.140;6.498;2024-02-23T00:14:48;5.40;99.90
52879;DHT22;38747;53.140;6.498;2024-02-23T00:17:13;5.40;99.90
52879;DHT22;38747;53.140;6.498;2024-02-23T00:19:39;5.40;99.90
52879;DHT22;38747;53.140;6.498;2024-02-23T00:22:05;5.50;99.90
52879;DHT22;38747;53.140;6.498;2024-02-23T00:24:31;5.40;99.90
52879;DHT22;38747;53.140;6.498;2024-02-23T00:26:56;5.40;99.90
52879;DHT22;38747;53.140;6.498;2024-02-23T00:29:22;5.50;99.90
52879;DHT22;38747;53.140;6.498;2024-02-23T00:31:48;5.50;99.90
52879;DHT22;38747;53.140;6.498;2024-02-23T00:34:14;5.50;99.90
52879;DHT22;38747;53.140;6.498;2024-02-23T00:36:41;5.40;99.90
52879;DHT22;38747;53.140;6.498;2024-02-23T00:39:07;5.40;99.90
52879;DHT22;38747;53.140;6.498;2024-02-23T00:41:34;5.40;99.90
52879;DHT22;38747;53.140;6.498;2024-02-23T00:43:59;5.40;99.90
52879;DHT22;38747;53.140;6.498;2024-02-23T00:46:25;5.30;99.90
52879;DHT22;38747;53.140;6.498;2024-02-23T00:48:50;5.30;99.90
52879;DHT22;38747;53.140;6.498;2024-02-23T00:51:16;5.20;99.90
52879;DHT22;38747;53.140;6.498;2024-02-23T00:53:42;5.10;99.90
52879;DHT22;38747;53.140;6.498;2024-02-23T00:56:07;5.20;99.90
52879;DHT22;38747;53.140;6.498;2024-02-23T00:58:33;5.20;99.90
52879;DHT22;38747;53.140;6.498;2024-02-23T01:00:59;5.10;99.90
52879;DHT22;38747;53.140;6.498;2024-02-23T01:03:25;5.20;99.90
52879;DHT22;38747;53.140;6.498;2024-02-23T01:05:50;5.00;99.90
52879;DHT22;38747;53.140;6.498;2024-02-23T01:08:16;5.00;99.90
52879;DHT22;38747;53.140;6.498;2024-02-23T01:10:42;5.00;99.90
52879;DHT22;38747;53.140;6.498;2024-02-23T01:13:07;5.00;99.90
52879;DHT22;38747;53.140;6.498;2024-02-23T01:15:33;5.00;99.90
52879;DHT22;38747;53.140;6.498;2024-02-23T01:17:59;4.80;99.90
52879;DHT22;38747;53.140;6.498;2024-02-23T01:20:25;4.80;99.90
52879;DHT22;38747;53.140;6.498;2024-02-23T01:22:50;4.70;99.90
52879;DHT22;38747;53.140;6.498;2024-02-23T01:25:16;4.80;99.90
52879;DHT22;38747;53.140;6.498;2024-02-23T01:27:42;4.80;99.90
52879;DHT22;38747;53.140;6.498;2024-02-23T01:30:10;4.80;99.90
52879;DHT22;38747;53.140;6.498;2024-02-23T01:32:35;4.80;99.90
52879;DHT22;38747;53.140;6.498;2024-02-23T01:35:04;4.80;99.90
52879;DHT22;38747;53.140;6.498;2024-02-23T01:37:30;4.70;99.90
52879;DHT22;38747;53.140;6.498;2024-02-23T01:39:56;4.80;99.90
52879;DHT22;38747;53.140;6.498;2024-02-23T01:42:21;4.90;99.90
52879;DHT22;38747;53.140;6.498;2024-02-23T01:44:47;4.90;99.90
52879;DHT22;38747;53.140;6.498;2024-02-23T01:47:15;4.90;99.90
52879;DHT22;38747;53.140;6.498;2024-02-23T01:49:41;4.90;99.90
52879;DHT22;38747;53.140;6.498;2024-02-23T01:52:07;5.00;99.90
52879;DHT22;38747;53.140;6.498;2024-02-23T01:54:33;4.90;99.90
52879;DHT22;38747;53.140;6.498;2024-02-23T01:57:00;5.00;99.90
52879;DHT22;38747;53.140;6.498;2024-02-23T01:59:26;5.00;99.90
52879;DHT22;38747;53.140;6.498;2024-02-23T02:01:53;5.00;99.90
52879;DHT22;38747;53.140;6.498;2024-02-23T02:04:19;5.00;99.90
52879;DHT22;38747;53.140;6.498;2024-02-23T02:06:46;5.10;99.90
52879;DHT22;38747;53.140;6.498;2024-02-23T02:09:12;5.20;99.90
52879;DHT22;38747;53.140;6.498;2024-02-23T02:11:47;5.20;99.90
52879;DHT22;38747;53.140;6.498;2024-02-23T02:14:15;5.30;99.90
52879;DHT22;38747;53.140;6.498;2024-02-23T02:16:41;5.30;99.90
52879;DHT22;38747;53.140;6.498;2024-02-23T02:19:06;5.40;99.90
52879;DHT22;38747;53.140;6.498;2024-02-23T02:21:33;5.50;99.90
52879;DHT22;38747;53.140;6.498;2024-02-23T02:23:59;5.50;99.90
52879;DHT22;38747;53.140;6.498;2024-02-23T02:26:24;5.50;99.90
52879;DHT22;38747;53.140;6.498;2024-02-23T02:28:50;5.50;99.90
52879;DHT22;38747;53.140;6.498;2024-02-23T02:31:15;5.50;99.90
52879;DHT22;38747;53.140;6.498;2024-02-23T02:33:41;5.50;99.90
52879;DHT22;38747;53.140;6.498;2024-02-23T02:36:07;5.60;99.90
52879;DHT22;38747;53.140;6.498;2024-02-23T02:38:32;5.60;99.90
52879;DHT22;38747;53.140;6.498;2024-02-23T02:41:01;5.70;99.90
52879;DHT22;38747;53.140;6.498;2024-02-23T02:43:27;5.60;99.90
52879;DHT22;38747;53.140;6.498;2024-02-23T02:45:53;5.80;99.90
52879;DHT22;38747;53.140;6.498;2024-02-23T02:48:19;5.70;99.90
52879;DHT22;38747;53.140;6.498;2024-02-23T02:50:44;5.70;99.90
52879;DHT22;38747;53.140;6.498;2024-02-23T02:53:10;5.70;99.90
52879;DHT22;38747;53.140;6.498;2024-02-23T02:55:39;5.70;99.90
52879;DHT22;38747;53.140;6.498;2024-02-23T02:58:04;5.70;99.90
52879;DHT22;38747;53.140;6.498;2024-02-23T03:00:30;5.70;99.90
52879;DHT22;38747;53.140;6.498;2024-02-23T03:02:57;5.60;99.90
52879;DHT22;38747;53.140;6.498;2024-02-23T03:05:22;5.60;99.90
52879;DHT22;38747;53.140;6.498;2024-02-23T03:07:48;5.50;99.90
52879;DHT22;38747;53.140;6.498;2024-02-23T03:10:13;5.50;99.90
52879;DHT22;38747;53.140;6.498;2024-02-23T03:12:39;5.60;99.90
52879;DHT22;38747;53.140;6.498;2024-02-23T03:15:05;5.60;99.90
52879;DHT22;38747;53.140;6.498;2024-02-23T03:17:31;5.60;99.90
52879;DHT22;38747;53.140;6.498;2024-02-23T03:20:00;5.50;99.90
52879;DHT22;38747;53.140;6.498;2024-02-23T03:22:25;5.60;99.90
52879;DHT22;38747;53.140;6.498;2024-02-23T03:24:51;5.60;99.90
52879;DHT22;38747;53.140;6.498;2024-02-23T03:27:16;5.60;99.90
52879;DHT22;38747;53.140;6.498;2024-02-23T03:29:42;5.50;99.90
52879;DHT22;38747;53.140;6.498;2024-02-23T03:32:08;5.50;99.90
52879;DHT22;38747;53.140;6.498;2024-02-23T03:34:35;5.50;99.90
52879;DHT22;38747;53.140;6.498;2024-02-23T03:37:01;5.50;99.90
52879;DHT22;38747;53.140;6.498;2024-02-23T03:39:28;5.50;99.90
52879;DHT22;38747;53.140;6.498;2024-02-23T03:41:54;5.40;99.90
52879;DHT22;38747;53.140;6.498;2024-02-23T03:44:19;5.40;99.90
52879;DHT22;38747;53.140;6.498;2024-02-23T03:46:45;5.50;99.90
52879;DHT22;38747;53.140;6.498;2024-02-23T03:49:11;5.40;99.90
52879;DHT22;38747;53.140;6.498;2024-02-23T03:51:37;5.40;99.90
52879;DHT22;38747;53.140;6.498;2024-02-23T03:54:05;5.50;99.90
52879;DHT22;38747;53.140;6.498;2024-02-23T03:56:40;5.40;99.90
52879;DHT22;38747;53.140;6.498;2024-02-23T03:59:07;5.40;99.90
52879;DHT22;38747;53.140;6.498;2024-02-23T04:01:35;5.30;99.90
52879;DHT22;38747;53.140;6.498;2024-02-23T04:04:02;5.40;99.90
52879;DHT22;38747;53.140;6.498;2024-02-23T04:06:27;5.30;99.90
52879;DHT22;38747;53.140;6.498;2024-02-23T04:08:53;5.30;99.90
52879;DHT22;38747;53.140;6.498;2024-02-23T04:11:19;5.30;99.90
52879;DHT22;38747;53.140;6.498;2024-02-23T04:13:44;5.20;99.90
52879;DHT22;38747;53.140;6.498;2024-02-23T04:16:10;5.20;99.90
52879;DHT22;38747;53.140;6.498;2024-02-23T04:18:35;5.20;99.90
52879;DHT22;38747;53.140;6.498;2024-02-23T04:21:01;5.20;99.90
52879;DHT22;38747;53.140;6.498;2024-02-23T04:23:27;5.20;99.90
52879;DHT22;38747;53.140;6.498;2024-02-23T04:25:52;5.20;99.90
52879;DHT22;38747;53.140;6.498;2024-02-23T04:28:18;5.20;99.90
52879;DHT22;38747;53.140;6.498;2024-02-23T04:30:44;5.20;99.90
52879;DHT22;38747;53.140;6.498;2024-02-23T04:33:09;5.20;99.90
52879;DHT22;38747;53.140;6.498;2024-02-23T04:35:35;5.10;99.90
52879;DHT22;38747;53.140;6.498;2024-02-23T04:38:02;5.10;99.90
52879;DHT22;38747;53.140;6.498;2024-02-23T04:40:27;5.10;99.90
52879;DHT22;38747;53.140;6.498;2024-02-23T04:42:53;5.00;99.90
52879;DHT22;38747;53.140;6.498;2024-02-23T04:45:18;5.00;99.90
52879;DHT22;38747;53.140;6.498;2024-02-23T04:47:44;5.00;99.90
52879;DHT22;38747;53.140;6.498;2024-02-23T04:50:12;4.90;99.90
52879;DHT22;38747;53.140;6.498;2024-02-23T04:52:38;5.00;99.90
52879;DHT22;38747;53.140;6.498;2024-02-23T04:55:04;5.00;99.90
52879;DHT22;38747;53.140;6.498;2024-02-23T04:57:30;4.90;99.90
52879;DHT22;38747;53.140;6.498;2024-02-23T04:59:56;4.90;99.90
52879;DHT22;38747;53.140;6.498;2024-02-23T05:02:21;4.80;99.90
52879;DHT22;38747;53.140;6.498;2024-02-23T05:04:47;4.80;99.90
52879;DHT22;38747;53.140;6.498;2024-02-23T05:07:13;4.80;99.90
52879;DHT22;38747;53.140;6.498;2024-02-23T05:09:38;4.70;99.90
52879;DHT22;38747;53.140;6.498;2024-02-23T05:12:07;4.80;99.90
52879;DHT22;38747;53.140;6.498;2024-02-23T05:14:32;4.70;99.90
52879;DHT22;38747;53.140;6.498;2024-02-23T05:16:58;4.60;99.90
52879;DHT22;38747;53.140;6.498;2024-02-23T05:19:24;4.60;99.90
52879;DHT22;38747;53.140;6.498;2024-02-23T05:21:49;4.50;99.90
52879;DHT22;38747;53.140;6.498;2024-02-23T05:24:15;4.50;99.90
52879;DHT22;38747;53.140;6.498;2024-02-23T05:26:41;4.50;99.90
52879;DHT22;38747;53.140;6.498;2024-02-23T05:29:07;4.50;99.90
52879;DHT22;38747;53.140;6.498;2024-02-23T05:31:50;4.40;99.90
52879;DHT22;38747;53.140;6.498;2024-02-23T05:34:16;4.40;99.90
52879;DHT22;38747;53.140;6.498;2024-02-23T05:36:42;4.50;99.90
52879;DHT22;38747;53.140;6.498;2024-02-23T05:39:08;4.40;99.90
52879;DHT22;38747;53.140;6.498;2024-02-23T05:41:35;4.50;99.90
52879;DHT22;38747;53.140;6.498;2024-02-23T05:44:03;4.50;99.90
52879;DHT22;38747;53.140;6.498;2024-02-23T05:46:33;4.50;99.90
52879;DHT22;38747;53.140;6.498;2024-02-23T05:49:00;4.50;99.90
52879;DHT22;38747;53.140;6.498;2024-02-23T05:51:25;4.50;99.90
52879;DHT22;38747;53.140;6.498;2024-02-23T05:53:51;4.50;99.90
52879;DHT22;38747;53.140;6.498;2024-02-23T05:56:17;4.60;99.90
52879;DHT22;38747;53.140;6.498;2024-02-23T05:58:42;4.60;99.90
52879;DHT22;38747;53.140;6.498;2024-02-23T06:01:08;4.50;99.90
52879;DHT22;38747;53.140;6.498;2024-02-23T06:03:33;4.60;99.90
52879;DHT22;38747;53.140;6.498;2024-02-23T06:05:59;4.60;99.90
52879;DHT22;38747;53.140;6.498;2024-02-23T06:08:26;4.60;99.90
52879;DHT22;38747;53.140;6.498;2024-02-23T06:10:52;4.60;99.90
52879;DHT22;38747;53.140;6.498;2024-02-23T06:13:17;4.70;99.90
52879;DHT22;38747;53.140;6.498;2024-02-23T06:15:43;4.60;99.90
52879;DHT22;38747;53.140;6.498;2024-02-23T06:18:09;4.60;99.90
52879;DHT22;38747;53.140;6.498;2024-02-23T06:20:34;4.60;99.90
52879;DHT22;38747;53.140;6.498;2024-02-23T06:23:00;4.50;99.90
52879;DHT22;38747;53.140;6.498;2024-02-23T06:25:25;4.50;99.90
52879;DHT22;38747;53.140;6.498;2024-02-23T06:27:51;4.50;99.90
52879;DHT22;38747;53.140;6.498;2024-02-23T06:30:17;4.50;99.90
52879;DHT22;38747;53.140;6.498;2024-02-23T06:32:42;4.50;99.90
52879;DHT22;38747;53.140;6.498;2024-02-23T06:35:09;4.50;99.90
52879;DHT22;38747;53.140;6.498;2024-02-23T06:37:37;4.50;99.90
52879;DHT22;38747;53.140;6.498;2024-02-23T06:40:02;4.50;99.90
52879;DHT22;38747;53.140;6.498;2024-02-23T06:42:29;4.40;99.90
52879;DHT22;38747;53.140;6.498;2024-02-23T06:44:55;4.40;99.90
52879;DHT22;38747;53.140;6.498;2024-02-23T06:47:21;4.40;99.90
52879;DHT22;38747;53.140;6.498;2024-02-23T06:49:47;4.50;99.90
52879;DHT22;38747;53.140;6.498;2024-02-23T06:52:13;4.50;99.90
52879;DHT22;38747;53.140;6.498;2024-02-23T06:54:39;4.50;99.90
52879;DHT22;38747;53.140;6.498;2024-02-23T06:57:04;4.40;99.90
52879;DHT22;38747;53.140;6.498;2024-02-23T06:59:30;4.60;99.90
52879;DHT22;38747;53.140;6.498;2024-02-23T07:01:57;4.60;99.90
52879;DHT22;38747;53.140;6.498;2024-02-23T07:04:23;4.60;99.90
52879;DHT22;38747;53.140;6.498;2024-02-23T07:06:48;4.70;99.90
52879;DHT22;38747;53.140;6.498;2024-02-23T07:09:14;4.70;99.90
52879;DHT22;38747;53.140;6.498;2024-02-23T07:11:40;4.80;99.90
52879;DHT22;38747;53.140;6.498;2024-02-23T07:14:07;4.80;99.90
52879;DHT22;38747;53.140;6.498;2024-02-23T07:16:37;4.80;99.90
52879;DHT22;38747;53.140;6.498;2024-02-23T07:19:04;4.80;99.90
52879;DHT22;38747;53.140;6.498;2024-02-23T07:21:30;4.90;99.90
52879;DHT22;38747;53.140;6.498;2024-02-23T07:23:56;4.90;99.90
52879;DHT22;38747;53.140;6.498;2024-02-23T07:26:21;4.90;99.90
52879;DHT22;38747;53.140;6.498;2024-02-23T07:28:48;4.90;99.90
52879;DHT22;38747;53.140;6.498;2024-02-23T07:31:14;5.00;99.90
52879;DHT22;38747;53.140;6.498;2024-02-23T07:33:40;5.00;99.90
52879;DHT22;38747;53.140;6.498;2024-02-23T07:36:06;5.00;99.90
52879;DHT22;38747;53.140;6.498;2024-02-23T07:38:34;5.00;99.90
52879;DHT22;38747;53.140;6.498;2024-02-23T07:41:00;5.10;99.90
52879;DHT22;38747;53.140;6.498;2024-02-23T07:43:25;5.10;99.90
52879;DHT22;38747;53.140;6.498;2024-02-23T07:45:51;5.10;99.90
52879;DHT22;38747;53.140;6.498;2024-02-23T07:48:17;5.00;99.90
52879;DHT22;38747;53.140;6.498;2024-02-23T07:50:42;5.10;99.90
52879;DHT22;38747;53.140;6.498;2024-02-23T07:53:08;5.10;99.90
52879;DHT22;38747;53.140;6.498;2024-02-23T07:55:34;5.10;99.90
52879;DHT22;38747;53.140;6.498;2024-02-23T07:57:59;5.20;99.90
52879;DHT22;38747;53.140;6.498;2024-02-23T08:00:29;5.20;99.90
52879;DHT22;38747;53.140;6.498;2024-02-23T08:02:55;5.30;99.90
52879;DHT22;38747;53.140;6.498;2024-02-23T08:05:22;5.20;99.90
52879;DHT22;38747;53.140;6.498;2024-02-23T08:07:49;5.30;99.90
52879;DHT22;38747;53.140;6.498;2024-02-23T08:10:14;5.30;99.90
52879;DHT22;38747;53.140;6.498;2024-02-23T08:12:40;5.30;99.90
52879;DHT22;38747;53.140;6.498;2024-02-23T08:15:06;5.30;99.90
52879;DHT22;38747;53.140;6.498;2024-02-23T08:17:32;5.40;99.90
52879;DHT22;38747;53.140;6.498;2024-02-23T08:19:57;5.40;99.90
52879;DHT22;38747;53.140;6.498;2024-02-23T08:22:23;5.40;99.90
52879;DHT22;38747;53.140;6.498;2024-02-23T08:24:49;5.30;99.90
52879;DHT22;38747;53.140;6.498;2024-02-23T08:27:15;5.40;99.90
52879;DHT22;38747;53.140;6.498;2024-02-23T08:29:40;5.40;99.90
52879;DHT22;38747;53.140;6.498;2024-02-23T08:32:07;5.40;99.90
52879;DHT22;38747;53.140;6.498;2024-02-23T08:34:32;5.50;99.90
52879;DHT22;38747;53.140;6.498;2024-02-23T08:37:05;5.50;99.90
52879;DHT22;38747;53.140;6.498;2024-02-23T08:39:31;5.50;99.90
52879;DHT22;38747;53.140;6.498;2024-02-23T08:41:56;5.50;99.90
52879;DHT22;38747;53.140;6.498;2024-02-23T08:44:22;5.50;99.90
52879;DHT22;38747;53.140;6.498;2024-02-23T08:46:47;5.60;99.90
52879;DHT22;38747;53.140;6.498;2024-02-23T08:49:14;5.70;99.90
52879;DHT22;38747;53.140;6.498;2024-02-23T08:51:40;5.70;99.90
52879;DHT22;38747;53.140;6.498;2024-02-23T08:54:06;5.70;99.90
52879;DHT22;38747;53.140;6.498;2024-02-23T08:56:37;5.80;99.90
52879;DHT22;38747;53.140;6.498;2024-02-23T08:59:06;6.00;99.90
52879;DHT22;38747;53.140;6.498;2024-02-23T09:01:31;5.90;99.90
52879;DHT22;38747;53.140;6.498;2024-02-23T09:03:57;5.90;99.90
52879;DHT22;38747;53.140;6.498;2024-02-23T09:06:23;6.10;99.90
52879;DHT22;38747;53.140;6.498;2024-02-23T09:08:48;6.00;99.90
52879;DHT22;38747;53.140;6.498;2024-02-23T09:11:14;6.10;99.90
52879;DHT22;38747;53.140;6.498;2024-02-23T09:13:41;6.10;99.90
52879;DHT22;38747;53.140;6.498;2024-02-23T09:16:07;6.10;99.90
52879;DHT22;38747;53.140;6.498;2024-02-23T09:18:34;6.20;99.90
52879;DHT22;38747;53.140;6.498;2024-02-23T09:21:00;6.20;99.90
52879;DHT22;38747;53.140;6.498;2024-02-23T09:23:26;6.20;99.90
52879;DHT22;38747;53.140;6.498;2024-02-23T09:25:51;6.30;99.90
52879;DHT22;38747;53.140;6.498;2024-02-23T09:28:17;6.30;99.90
52879;DHT22;38747;53.140;6.498;2024-02-23T09:30:43;6.40;99.90
52879;DHT22;38747;53.140;6.498;2024-02-23T09:33:08;6.50;99.90
52879;DHT22;38747;53.140;6.498;2024-02-23T09:35:34;6.60;99.90
52879;DHT22;38747;53.140;6.498;2024-02-23T09:37:59;6.70;99.90
52879;DHT22;38747;53.140;6.498;2024-02-23T09:40:26;6.60;99.90
52879;DHT22;38747;53.140;6.498;2024-02-23T09:42:56;6.70;99.90
52879;DHT22;38747;53.140;6.498;2024-02-23T09:45:26;6.60;99.90
52879;DHT22;38747;53.140;6.498;2024-02-23T09:47:57;6.70;99.90
52879;DHT22;38747;53.140;6.498;2024-02-23T09:50:23;6.80;99.90
52879;DHT22;38747;53.140;6.498;2024-02-23T09:52:50;6.70;99.90
52879;DHT22;38747;53.140;6.498;2024-02-23T09:55:17;6.80;99.90
52879;DHT22;38747;53.140;6.498;2024-02-23T09:57:44;6.80;99.90
52879;DHT22;38747;53.140;6.498;2024-02-23T10:00:10;6.80;99.90
52879;DHT22;38747;53.140;6.498;2024-02-23T10:02:37;6.90;99.90
52879;DHT22;38747;53.140;6.498;2024-02-23T10:05:03;7.00;99.90
52879;DHT22;38747;53.140;6.498;2024-02-23T10:07:29;7.00;99.90
52879;DHT22;38747;53.140;6.498;2024-02-23T10:09:58;7.00;99.90
52879;DHT22;38747;53.140;6.498;2024-02-23T10:12:23;7.20;99.90
52879;DHT22;38747;53.140;6.498;2024-02-23T10:14:49;7.30;99.90
52879;DHT22;38747;53.140;6.498;2024-02-23T10:17:15;7.50;99.90
52879;DHT22;38747;53.140;6.498;2024-02-23T10:19:40;7.50;99.90
52879;DHT22;38747;53.140;6.498;2024-02-23T10:22:06;7.60;99.90
52879;DHT22;38747;53.140;6.498;2024-02-23T10:24:31;7.50;99.90
52879;DHT22;38747;53.140;6.498;2024-02-23T10:26:57;7.50;99.90
52879;DHT22;38747;53.140;6.498;2024-02-23T10:29:23;7.50;99.90
52879;DHT22;38747;53.140;6.498;2024-02-23T10:31:51;7.50;99.90
52879;DHT22;38747;53.140;6.498;2024-02-23T10:34:19;7.40;99.90
52879;DHT22;38747;53.140;6.498;2024-02-23T10:36:45;7.50;99.90
52879;DHT22;38747;53.140;6.498;2024-02-23T10:39:16;7.50;99.90
52879;DHT22;38747;53.140;6.498;2024-02-23T10:41:47;7.10;99.90
52879;DHT22;38747;53.140;6.498;2024-02-23T10:44:17;7.10;99.90
52879;DHT22;38747;53.140;6.498;2024-02-23T10:46:44;7.20;99.90
52879;DHT22;38747;53.140;6.498;2024-02-23T10:49:11;7.00;99.90
52879;DHT22;38747;53.140;6.498;2024-02-23T10:51:39;7.00;99.90
52879;DHT22;38747;53.140;6.498;2024-02-23T10:54:06;7.00;99.90
52879;DHT22;38747;53.140;6.498;2024-02-23T10:56:32;7.10;99.90
52879;DHT22;38747;53.140;6.498;2024-02-23T10:58:58;7.00;99.90
52879;DHT22;38747;53.140;6.498;2024-02-23T11:01:24;7.00;99.90
52879;DHT22;38747;53.140;6.498;2024-02-23T11:03:52;7.00;99.90
52879;DHT22;38747;53.140;6.498;2024-02-23T11:06:19;7.00;99.90
52879;DHT22;38747;53.140;6.498;2024-02-23T11:08:47;6.90;99.90
52879;DHT22;38747;53.140;6.498;2024-02-23T11:11:16;6.90;99.90
52879;DHT22;38747;53.140;6.498;2024-02-23T11:13:44;6.90;99.90
52879;DHT22;38747;53.140;6.498;2024-02-23T11:16:10;6.80;99.90
52879;DHT22;38747;53.140;6.498;2024-02-23T11:18:38;6.80;99.90
52879;DHT22;38747;53.140;6.498;2024-02-23T11:21:05;6.90;99.90
52879;DHT22;38747;53.140;6.498;2024-02-23T11:23:41;6.70;99.90
52879;DHT22;38747;53.140;6.498;2024-02-23T11:26:10;6.70;99.90
52879;DHT22;38747;53.140;6.498;2024-02-23T11:29:11;6.70;99.90
52879;DHT22;38747;53.140;6.498;2024-02-23T11:31:44;6.60;99.90
52879;DHT22;38747;53.140;6.498;2024-02-23T11:34:11;6.60;99.90
52879;DHT22;38747;53.140;6.498;2024-02-23T11:36:38;6.50;99.90
52879;DHT22;38747;53.140;6.498;2024-02-23T11:39:04;6.60;99.90
52879;DHT22;38747;53.140;6.498;2024-02-23T11:41:31;6.60;99.90
52879;DHT22;38747;53.140;6.498;2024-02-23T11:43:57;6.60;99.90
52879;DHT22;38747;53.140;6.498;2024-02-23T11:46:23;6.60;99.90
52879;DHT22;38747;53.140;6.498;2024-02-23T11:48:49;6.70;99.90
52879;DHT22;38747;53.140;6.498;2024-02-23T11:51:25;6.60;99.90
52879;DHT22;38747;53.140;6.498;2024-02-23T11:53:55;6.70;99.90
52879;DHT22;38747;53.140;6.498;2024-02-23T11:56:26;6.70;99.90
52879;DHT22;38747;53.140;6.498;2024-02-23T11:58:53;6.60;99.90
52879;DHT22;38747;53.140;6.498;2024-02-23T12:01:21;6.60;99.90
52879;DHT22;38747;53.140;6.498;2024-02-23T12:03:46;6.70;99.90
52879;DHT22;38747;53.140;6.498;2024-02-23T12:06:14;6.70;99.90
52879;DHT22;38747;53.140;6.498;2024-02-23T12:08:41;6.80;99.90
52879;DHT22;38747;53.140;6.498;2024-02-23T12:11:08;6.80;99.90
52879;DHT22;38747;53.140;6.498;2024-02-23T12:13:35;6.80;99.90
52879;DHT22;38747;53.140;6.498;2024-02-23T12:16:01;6.80;99.90
52879;DHT22;38747;53.140;6.498;2024-02-23T12:18:28;6.90;99.90
52879;DHT22;38747;53.140;6.498;2024-02-23T12:21:03;6.80;99.90
52879;DHT22;38747;53.140;6.498;2024-02-23T12:23:43;7.00;99.90
52879;DHT22;38747;53.140;6.498;2024-02-23T12:26:10;6.90;99.90
52879;DHT22;38747;53.140;6.498;2024-02-23T12:28:39;6.90;99.90
52879;DHT22;38747;53.140;6.498;2024-02-23T12:31:05;6.90;99.90
52879;DHT22;38747;53.140;6.498;2024-02-23T12:33:32;6.90;99.90
52879;DHT22;38747;53.140;6.498;2024-02-23T12:35:58;6.90;99.90
52879;DHT22;38747;53.140;6.498;2024-02-23T12:38:25;6.90;99.90
52879;DHT22;38747;53.140;6.498;2024-02-23T12:40:51;7.10;99.90
52879;DHT22;38747;53.140;6.498;2024-02-23T12:43:17;7.00;99.90
52879;DHT22;38747;53.140;6.498;2024-02-23T12:45:43;7.20;99.90
52879;DHT22;38747;53.140;6.498;2024-02-23T12:48:15;7.20;99.90
52879;DHT22;38747;53.140;6.498;2024-02-23T12:50:41;7.30;99.90
52879;DHT22;38747;53.140;6.498;2024-02-23T12:53:07;7.30;99.90
52879;DHT22;38747;53.140;6.498;2024-02-23T12:55:33;7.30;99.90
52879;DHT22;38747;53.140;6.498;2024-02-23T12:57:59;7.30;99.90
52879;DHT22;38747;53.140;6.498;2024-02-23T13:00:25;7.30;99.90
52879;DHT22;38747;53.140;6.498;2024-02-23T13:02:50;7.30;99.90
52879;DHT22;38747;53.140;6.498;2024-02-23T13:05:16;7.50;99.90
52879;DHT22;38747;53.140;6.498;2024-02-23T13:07:42;7.30;99.90
52879;DHT22;38747;53.140;6.498;2024-02-23T13:10:08;7.20;99.90
52879;DHT22;38747;53.140;6.498;2024-02-23T13:12:34;7.30;99.90
52879;DHT22;38747;53.140;6.498;2024-02-23T13:15:00;7.20;99.90
52879;DHT22;38747;53.140;6.498;2024-02-23T13:17:25;7.30;99.90
52879;DHT22;38747;53.140;6.498;2024-02-23T13:19:51;7.20;99.90
52879;DHT22;38747;53.140;6.498;2024-02-23T13:22:16;7.20;99.90
52879;DHT22;38747;53.140;6.498;2024-02-23T13:24:42;7.40;99.90
52879;DHT22;38747;53.140;6.498;2024-02-23T13:27:08;7.30;99.90
52879;DHT22;38747;53.140;6.498;2024-02-23T13:29:33;7.30;99.90
52879;DHT22;38747;53.140;6.498;2024-02-23T13:31:59;7.30;99.90
52879;DHT22;38747;53.140;6.498;2024-02-23T13:34:24;7.40;99.90
52879;DHT22;38747;53.140;6.498;2024-02-23T13:36:50;7.40;99.90
52879;DHT22;38747;53.140;6.498;2024-02-23T13:39:18;7.40;99.90
52879;DHT22;38747;53.140;6.498;2024-02-23T13:41:43;7.30;99.90
52879;DHT22;38747;53.140;6.498;2024-02-23T13:44:09;7.40;99.90
52879;DHT22;38747;53.140;6.498;2024-02-23T13:46:40;7.40;99.90
52879;DHT22;38747;53.140;6.498;2024-02-23T13:49:07;7.40;99.90
52879;DHT22;38747;53.140;6.498;2024-02-23T13:51:34;7.50;99.90
52879;DHT22;38747;53.140;6.498;2024-02-23T13:54:00;7.50;99.90
52879;DHT22;38747;53.140;6.498;2024-02-23T13:56:26;7.60;99.90
52879;DHT22;38747;53.140;6.498;2024-02-23T13:58:51;7.70;99.90
52879;DHT22;38747;53.140;6.498;2024-02-23T14:01:17;7.70;99.90
52879;DHT22;38747;53.140;6.498;2024-02-23T14:03:43;7.80;99.90
52879;DHT22;38747;53.140;6.498;2024-02-23T14:06:08;7.80;99.90
52879;DHT22;38747;53.140;6.498;2024-02-23T14:08:34;8.10;99.90
52879;DHT22;38747;53.140;6.498;2024-02-23T14:11:02;8.20;99.90
52879;DHT22;38747;53.140;6.498;2024-02-23T14:13:29;8.10;99.90
52879;DHT22;38747;53.140;6.498;2024-02-23T14:15:54;7.90;99.90
52879;DHT22;38747;53.140;6.498;2024-02-23T14:18:20;7.90;99.90
52879;DHT22;38747;53.140;6.498;2024-02-23T14:20:45;7.80;99.90
52879;DHT22;38747;53.140;6.498;2024-02-23T14:23:12;7.80;99.90
52879;DHT22;38747;53.140;6.498;2024-02-23T14:25:38;7.80;99.90
52879;DHT22;38747;53.140;6.498;2024-02-23T14:28:03;7.80;99.90
52879;DHT22;38747;53.140;6.498;2024-02-23T14:30:29;7.90;99.90
52879;DHT22;38747;53.140;6.498;2024-02-23T14:32:55;8.10;99.90
52879;DHT22;38747;53.140;6.498;2024-02-23T14:35:20;8.20;99.90
52879;DHT22;38747;53.140;6.498;2024-02-23T14:37:46;8.10;99.90
52879;DHT22;38747;53.140;6.498;2024-02-23T14:40:12;8.00;99.90
52879;DHT22;38747;53.140;6.498;2024-02-23T14:42:39;8.00;99.90
52879;DHT22;38747;53.140;6.498;2024-02-23T14:45:06;7.90;99.90
52879;DHT22;38747;53.140;6.498;2024-02-23T14:47:32;7.70;99.90
52879;DHT22;38747;53.140;6.498;2024-02-23T14:49:57;7.60;99.90
52879;DHT22;38747;53.140;6.498;2024-02-23T14:52:23;7.60;99.90
52879;DHT22;38747;53.140;6.498;2024-02-23T14:54:49;7.50;99.90
52879;DHT22;38747;53.140;6.498;2024-02-23T14:57:14;7.40;99.90
52879;DHT22;38747;53.140;6.498;2024-02-23T14:59:40;7.30;99.90
52879;DHT22;38747;53.140;6.498;2024-02-23T15:02:21;7.30;99.90
52879;DHT22;38747;53.140;6.498;2024-02-23T15:04:51;7.20;99.90
52879;DHT22;38747;53.140;6.498;2024-02-23T15:07:16;7.10;99.90
52879;DHT22;38747;53.140;6.498;2024-02-23T15:09:45;7.10;99.90
52879;DHT22;38747;53.140;6.498;2024-02-23T15:12:14;6.80;99.90
52879;DHT22;38747;53.140;6.498;2024-02-23T15:14:40;6.50;99.90
52879;DHT22;38747;53.140;6.498;2024-02-23T15:17:06;6.40;99.90
52879;DHT22;38747;53.140;6.498;2024-02-23T15:19:31;6.50;99.90
52879;DHT22;38747;53.140;6.498;2024-02-23T15:21:57;6.50;99.90
52879;DHT22;38747;53.140;6.498;2024-02-23T15:24:23;6.60;99.90
52879;DHT22;38747;53.140;6.498;2024-02-23T15:26:50;6.50;99.90
52879;DHT22;38747;53.140;6.498;2024-02-23T15:29:16;6.40;99.90
52879;DHT22;38747;53.140;6.498;2024-02-23T15:31:41;6.40;99.90
52879;DHT22;38747;53.140;6.498;2024-02-23T15:34:08;6.30;99.90
52879;DHT22;38747;53.140;6.498;2024-02-23T15:36:34;6.30;99.90
52879;DHT22;38747;53.140;6.498;2024-02-23T15:39:00;6.20;99.90